CMA CGM Hugo — DCTA2 — position and weather

sailwx.info

Track history (hours):
 
Tides and Currents Weather Stations Pressure Air Temp Water Temp Dewpoint Dewpoint Depression Visibility Wind Speed Wind Dir Waves Ship Positions

CMA CGM Hugo

Last reported at 2014-Sep-20 21:31 UTC. Time now 2014-Sep-20 22:10 UTC.
Position N 30°37' E 122°04'.

Length 334.1 m; beam 42.8 m; draft 14.5 m.

Type: Ship. MMSI: 211831000.

Date/timePositionNaut miles runAvg speedWind from/ knotsBaromVisibWave heightAir tempDewpointWater temp
2014-Sep-20 21:31N 30°37' E 122°04'0 0.0
2014-Sep-20 01:32N 30°37' E 122°04'1010.7
2014-Sep-20 00:33N 30°34' E 122°15'1212.3
2014-Sep-19 23:33N 30°30' E 122°29'1 0.2
2014-Sep-19 20:26N 30°29' E 122°29'0 0.1
2014-Sep-19 19:31N 30°30' E 122°29'0 0.0
2014-Sep-19 17:31N 30°30' E 122°29'0 0.0
2014-Sep-19 16:30N 30°30' E 122°29'0 0.0
2014-Sep-19 15:12N 30°30' E 122°29'0 0.1
2014-Sep-19 14:23N 30°29' E 122°29'0 0.0
2014-Sep-19 13:05N 30°30' E 122°29'3 1.9
2014-Sep-19 11:33N 30°31' E 122°32'1313.2
2014-Sep-19 10:33N 30°27' E 122°47'1814.5
2014-Sep-19 09:19N 30°15' E 123°03'30313.2
2014-Sep-18 10:18N 25°39' E 120°40'4013.5
2014-Sep-18 07:20N 25°09' E 120°11'10813.4
2014-Sep-17 23:18N 23°58' E 118°42'1114.0
2014-Sep-17 22:29N 23°50' E 118°33'1314.2
2014-Sep-17 21:33N 23°42' E 118°22'1514.6
2014-Sep-17 20:33N 23°33' E 118°09'1515.2
2014-Sep-17 19:33N 23°26' E 117°55'1514.9
2014-Sep-17 18:33N 23°18' E 117°41'1514.0
2014-Sep-17 17:30N 23°09' E 117°28'1414.6
2014-Sep-17 16:33N 22°57' E 117°21'  
2014-Sep-13 17:04N 01°17' E 104°20'1121.2
2014-Sep-13 16:33N 01°15' E 104°09'1919.2
2014-Sep-13 15:33N 01°11' E 103°50'7 7.1
2014-Sep-13 14:33N 01°16' E 103°45'0 0.2
2014-Sep-13 13:33N 01°17' E 103°45'0 0.1
2014-Sep-13 12:32N 01°17' E 103°45'0 0.0
2014-Sep-13 11:29N 01°17' E 103°45'0 0.0
2014-Sep-13 10:31N 01°17' E 103°45'0 0.1
2014-Sep-13 09:31N 01°17' E 103°45'0 0.1
2014-Sep-13 08:34N 01°17' E 103°45'0 0.0
2014-Sep-13 07:33N 01°17' E 103°45'0 0.0
2014-Sep-13 05:32N 01°17' E 103°45'0 0.0
2014-Sep-13 04:26N 01°17' E 103°45'0 0.0
2014-Sep-13 03:19N 01°17' E 103°45'0 0.1
2014-Sep-13 02:31N 01°17' E 103°45'0 0.0
2014-Sep-13 01:30N 01°17' E 103°45'0 0.1
2014-Sep-13 00:33N 01°17' E 103°45'0 0.0
2014-Sep-12 23:33N 01°17' E 103°45'0 0.1
2014-Sep-12 22:26N 01°17' E 103°45'2 2.0
2014-Sep-12 21:33N 01°15' E 103°46'8 7.8
2014-Sep-12 20:33N 01°12' E 103°39'  
Track history (hours):
 
Tides and Currents Weather Stations Pressure Air Temp Water Temp Dewpoint Dewpoint Depression Visibility Wind Speed Wind Dir Waves Ship Positions

CMA CGM Hugo

Last reported at 2014-Sep-20 21:31 UTC. Time now 2014-Sep-20 22:10 UTC.
Position N 30°37' E 122°04'.

Length 334.1 m; beam 42.8 m; draft 14.5 m.

Type: Ship. MMSI: 211831000.

Date/timePositionNaut miles runAvg speedWind from/ knotsBaromVisibWave heightAir tempDewpointWater temp
2014-Sep-20 21:31N 30°37' E 122°04'0 0.0
2014-Sep-20 01:32N 30°37' E 122°04'1010.7
2014-Sep-20 00:33N 30°34' E 122°15'1212.3
2014-Sep-19 23:33N 30°30' E 122°29'1 0.2
2014-Sep-19 20:26N 30°29' E 122°29'0 0.1
2014-Sep-19 19:31N 30°30' E 122°29'0 0.0
2014-Sep-19 17:31N 30°30' E 122°29'0 0.0
2014-Sep-19 16:30N 30°30' E 122°29'0 0.0
2014-Sep-19 15:12N 30°30' E 122°29'0 0.1
2014-Sep-19 14:23N 30°29' E 122°29'0 0.0
2014-Sep-19 13:05N 30°30' E 122°29'3 1.9
2014-Sep-19 11:33N 30°31' E 122°32'1313.2
2014-Sep-19 10:33N 30°27' E 122°47'1814.5
2014-Sep-19 09:19N 30°15' E 123°03'30313.2
2014-Sep-18 10:18N 25°39' E 120°40'4013.5
2014-Sep-18 07:20N 25°09' E 120°11'10813.4
2014-Sep-17 23:18N 23°58' E 118°42'1114.0
2014-Sep-17 22:29N 23°50' E 118°33'1314.2
2014-Sep-17 21:33N 23°42' E 118°22'1514.6
2014-Sep-17 20:33N 23°33' E 118°09'1515.2
2014-Sep-17 19:33N 23°26' E 117°55'1514.9
2014-Sep-17 18:33N 23°18' E 117°41'1514.0
2014-Sep-17 17:30N 23°09' E 117°28'1414.6
2014-Sep-17 16:33N 22°57' E 117°21'  
2014-Sep-13 17:04N 01°17' E 104°20'1121.2
2014-Sep-13 16:33N 01°15' E 104°09'1919.2
2014-Sep-13 15:33N 01°11' E 103°50'7 7.1
2014-Sep-13 14:33N 01°16' E 103°45'0 0.2
2014-Sep-13 13:33N 01°17' E 103°45'0 0.1
2014-Sep-13 12:32N 01°17' E 103°45'0 0.0
2014-Sep-13 11:29N 01°17' E 103°45'0 0.0
2014-Sep-13 10:31N 01°17' E 103°45'0 0.1
2014-Sep-13 09:31N 01°17' E 103°45'0 0.1
2014-Sep-13 08:34N 01°17' E 103°45'0 0.0
2014-Sep-13 07:33N 01°17' E 103°45'0 0.0
2014-Sep-13 05:32N 01°17' E 103°45'0 0.0
2014-Sep-13 04:26N 01°17' E 103°45'0 0.0
2014-Sep-13 03:19N 01°17' E 103°45'0 0.1
2014-Sep-13 02:31N 01°17' E 103°45'0 0.0
2014-Sep-13 01:30N 01°17' E 103°45'0 0.1
2014-Sep-13 00:33N 01°17' E 103°45'0 0.0
2014-Sep-12 23:33N 01°17' E 103°45'0 0.1
2014-Sep-12 22:26N 01°17' E 103°45'2 2.0
2014-Sep-12 21:33N 01°15' E 103°46'8 7.8
2014-Sep-12 20:33N 01°12' E 103°39'  

Dump ship's entire track history